• Join FlightAware (Why Join?)
  • Login
  • US Flag 
05:27AM EDT


 

Airport Tracker/Info


-or-


 

Live Flight TrackerFlight Track Log ✈ CPZ5714 ✈ 20-Jun-2013 ✈ KMSP - KALB

Flight Track Log - Related Links

Times and Time Zones

All times are in EDT time to prevent confusion due to time zone crossing. See the CPZ5714 flight status page for this flight to view local times or setup timezone preferences in your user account.

Time Position Orientation Groundspeed Altitude Reporting Facility
EDT Latitude Longitude Course Direction KTS MPH feet Rate Location/Type
08:40PM 44.8667 -93.1333 70° East 185 213 2,200  Level Minneapolis TRACON
08:41PM 44.8681 -93.0769 88° East 220 253 3,100 1,980 Climbing Minneapolis Center
08:42PM 45.0024 -92.7525 69° East  Level FlightAware Approximate
08:42PM 44.9306 -93.0178 34° Northeast 291 335 5,600  Level Minneapolis Center
08:43PM 45.0463 -92.5965 68° East  Level FlightAware Approximate
08:43PM 45.0128 -92.9967 10° North 302 348 7,300  Level Minneapolis Center
08:44PM 45.0899 -92.4404 70° East  Level FlightAware Approximate
08:44PM 45.0761 -92.9181 41° Northeast 306 352 10,100  Level Minneapolis Center
08:45PM 45.1257 -92.2810 70° East  Level FlightAware Approximate
08:45PM 45.1406 -92.7842 56° Northeast 362 417 11,700  Level Minneapolis Center
08:46PM 45.1644 -92.1259 70° East  Level FlightAware Approximate
08:46PM 45.1686 -92.6428 74° East 374 430 13,400  Level Minneapolis Center
08:47PM 45.1747 -92.4917 87° East 386 444 15,600 1,920 Climbing Minneapolis Center
08:48PM 45.1622 -92.3356 96° East 397 457 17,400 1,980 Climbing Minneapolis Center
08:49PM 45.1625 -92.1772 90° East 404 465 19,800 2,160 Climbing Minneapolis Center
08:50PM 45.1631 -92.0144 90° East 414 476 21,900 1,920 Climbing Minneapolis Center
08:51PM 45.1553 -91.8194 93° East 416 479 23,800 1,560 Climbing Minneapolis Center
08:52PM 45.1478 -91.6519 94° East 426 490 25,200 1,260 Climbing Minneapolis Center
08:53PM 45.1375 -91.4797 95° East 436 502 26,500 960 Climbing Minneapolis Center
08:54PM 45.1303 -91.3031 93° East 445 512 27,200 780 Climbing Minneapolis Center
08:55PM 45.1225 -91.1122 93° East 462 532 28,200 960 Climbing Minneapolis Center
08:56PM 45.1131 -90.9325 94° East 473 544 29,200 780 Climbing Minneapolis Center
08:57PM 45.1017 -90.7392 95° East 478 550 29,900 960 Climbing Minneapolis Center
08:58PM 45.0894 -90.5119 94° East 484 557 31,200 960 Climbing Minneapolis Center
08:59PM 45.0794 -90.3236 94° East 485 558 31,900 720 Climbing Minneapolis Center
09:01PM 45.0692 -90.1347 94° East 485 558 32,800 780 Climbing Minneapolis Center
09:02PM 45.0581 -89.9467 95° East 484 557 33,600 900 Climbing Minneapolis Center
09:03PM 45.0444 -89.7347 95° East 480 552 34,700 660 Climbing Minneapolis Center
09:04PM 45.0331 -89.5506 95° East 473 544 35,000 120 Climbing Minneapolis Center
09:05PM 45.0217 -89.3683 95° East 467 537 35,000  Level Minneapolis Center
09:06PM 45.0094 -89.1858 95° East 466 536 35,000  Level Minneapolis Center
09:07PM 44.9967 -89.0019 96° East 469 540 35,000  Level Minneapolis Center
09:08PM 44.9822 -88.7892 95° East 467 537 35,000  Level Minneapolis Center
09:09PM 44.9703 -88.6069 95° East 466 536 35,000  Level Minneapolis Center
09:10PM 44.9575 -88.4244 96° East 465 535 35,000  Level Minneapolis Center
09:11PM 44.9425 -88.2422 97° East 468 539 35,000  Level Minneapolis Center
09:12PM 44.9283 -88.0567 96° East 474 545 35,000  Level Minneapolis Center
09:13PM 44.9131 -87.8694 97° East 481 554 35,000  Level Minneapolis Center
09:14PM 44.8975 -87.6447 96° East 481 554 35,000  Level Minneapolis Center
09:15PM 44.8794 -87.4542 98° East 489 563 35,000  Level Minneapolis Center
09:16PM 44.8639 -87.2656 97° East 487 560 35,000  Level Minneapolis Center
09:17PM 44.8481 -87.0767 97° East 487 560 35,000  Level Minneapolis Center
09:18PM 44.8319 -86.8886 97° East 486 559 35,000  Level Minneapolis Center
09:19PM 44.8131 -86.6703 97° East 490 564 35,000  Level Minneapolis Center
09:20PM 44.7964 -86.4783 97° East 494 568 35,000  Level Minneapolis Center
09:21PM 44.7747 -86.2503 98° East 492 566 35,000  Level Minneapolis Center
09:22PM 44.7572 -86.0611 97° East 489 563 35,000  Level Minneapolis Center
09:23PM 44.7375 -85.8703 98° East 491 565 35,000  Level Minneapolis Center
09:25PM 44.7139 -85.6525 99° East 491 565 35,000 120 Level Minneapolis Center
09:26PM 44.6933 -85.4656 99° East 488 562 35,300 480 Climbing Minneapolis Center
09:27PM 44.6733 -85.2808 99° East 482 555 36,000 660 Climbing Minneapolis Center
09:28PM 44.6525 -85.1003 99° East 472 543 36,700 480 Climbing Minneapolis Center
09:29PM 44.6278 -84.8844 99° East 469 540 37,000 120 Climbing Minneapolis Center
09:30PM 44.6067 -84.7033 99° East 471 542 37,000  Level Minneapolis Center
09:31PM 44.5850 -84.5228 100° East 472 543 37,000  Level Minneapolis Center
09:32PM 44.5631 -84.3425 100° East 470 541 37,000  Level Minneapolis Center
09:33PM 44.5406 -84.1608 100° East 473 544 37,000  Level Minneapolis Center
09:34PM 44.5192 -83.9808 99° East 472 543 37,000  Level Minneapolis Center
09:35PM 44.4964 -83.8014 100° East 469 540 37,000  Level Minneapolis Center
09:36PM 44.4694 -83.5850 100° East 472 543 37,000  Level Minneapolis Center
09:37PM 44.4458 -83.4053 100° East 471 542 37,000  Level Minneapolis Center
09:38PM 44.4181 -83.1869 100° East 475 547 37,000  Level Minneapolis Center
09:39PM 44.3936 -83.0053 101° East 476 548 37,000  Level Minneapolis Center
09:40PM 44.3667 -82.8833 107° East 480 552 37,000  Level Toronto Center
09:41PM 44.3333 -82.7167 106° East 470 541 37,000  Level Toronto Center
09:42PM 44.3167 -82.5167 97° East 470 541 37,000  Level Toronto Center
09:43PM 44.2833 -82.3333 104° East 480 552 37,000  Level Toronto Center
09:44PM 44.2500 -82.1500 104° East 480 552 37,000  Level Toronto Center
09:45PM 44.2333 -81.9667 97° East 480 552 37,000  Level Toronto Center
09:46PM 44.2167 -81.8000 98° East 480 552 37,000  Level Toronto Center
09:47PM 44.1833 -81.6167 104° East 480 552 37,000  Level Toronto Center
09:48PM 44.1500 -81.4167 103° East 480 552 37,000  Level Toronto Center
09:49PM 44.1333 -81.2333 97° East 480 552 37,000  Level Toronto Center
09:50PM 44.1000 -81.0667 106° East 480 552 37,000  Level Toronto Center
09:51PM 44.0667 -80.8833 104° East 470 541 37,000  Level Toronto Center
09:52PM 44.0500 -80.7167 98° East 470 541 37,000  Level Toronto Center
09:53PM 44.0333 -80.5167 97° East 470 541 37,000  Level Toronto Center
09:54PM 44.0000 -80.3500 105° East 470 541 37,000  Level Toronto Center
09:55PM 43.9667 -80.1667 104° East 470 541 37,000  Level Toronto Center
09:56PM 43.9333 -80.0000 105° East 470 541 37,000  Level Toronto Center
09:57PM 43.9167 -79.8167 97° East 470 541 37,000  Level Toronto Center
09:58PM 43.8833 -79.6333 104° East 470 541 37,000  Level Toronto Center
09:59PM 43.8500 -79.4667 105° East 480 552 37,000  Level Toronto Center
10:00PM 43.8167 -79.2833 104° East 480 552 37,000  Level Toronto Center
10:01PM 43.8000 -79.1167 98° East 480 552 37,000  Level Toronto Center
10:02PM 43.7667 -78.9333 104° East 480 552 37,000  Level Toronto Center
10:03PM 43.7333 -78.7333 103° East 480 552 37,000  Level Toronto Center
10:04PM 43.7000 -78.5667 105° East 480 552 37,000  Level Toronto Center
10:05PM 43.6500 -78.3833 111° Southeast 480 552 37,000  Level Toronto Center
10:06PM 43.6333 -78.2000 97° East 480 552 37,000  Level Toronto Center
10:07PM 43.6000 -78.0500 107° East 480 552 37,000  Level Toronto Center
10:08PM 43.5667 -77.8667 104° East 480 552 37,000  Level Toronto Center
10:09PM 43.5361 -77.6567 101° East 468 539 37,000 -480 Level Cleveland Center
10:11PM 43.4667 -77.3167 106° East 480 552 35,600 -960 Descending Toronto Center
10:12PM 43.4333 -77.1333 104° East 490 564 34,500 -1,140 Descending Toronto Center
10:12PM 43.4228 -77.0433 99° East 482 555 33,700 -1,260 Descending Boston Center
10:13PM 43.3881 -76.8636 105° East 482 555 32,400 -1,320 Descending Boston Center
10:14PM 43.3533 -76.6811 105° East 488 562 31,100 -1,320 Descending Boston Center
10:15PM 43.3181 -76.5014 105° East 488 562 29,800 -1,140 Descending Boston Center
10:16PM 43.3100 -76.3156 93° East 488 562 28,900 -960 Descending Boston Center
10:17PM 43.3142 -76.1300 88° East 488 562 27,900 -1,020 Descending Boston Center
10:18PM 43.3156 -75.9475 89° East 483 556 26,900 -1,200 Descending Boston Center
10:19PM 43.2981 -75.7697 98° East 478 550 25,600 -1,440 Descending Boston Center
10:20PM 43.2506 -75.6017 111° Southeast 469 540 24,100 -1,800 Descending Boston Center
10:21PM 43.2053 -75.4339 110° East 469 540 22,100 -2,040 Descending Boston Center
10:22PM 43.1650 -75.2897 111° Southeast 459 528 20,100 -1,980 Descending Boston Center
10:23PM 43.1231 -75.1342 110° East 446 513 18,200 -1,800 Descending Boston Center
10:24PM 43.0828 -74.9844 110° East 434 499 16,500 -1,860 Descending Boston Center
10:25PM 43.0442 -74.8408 110° East 420 483 14,500 -2,160 Descending Boston Center
10:26PM 43.0131 -74.7317 111° Southeast 389 448 12,900 -2,100 Descending Boston Center
10:27PM 42.9739 -74.5969 112° Southeast 388 447 11,000 -1,080 Descending Boston Center
10:28PM 42.9386 -74.4792 112° Southeast 314 361 10,800 -960 Descending Boston Center
10:29PM 42.9364 -74.3600 91° East 300 345 9,100 -1,740 Descending Boston Center
10:30PM 42.9342 -74.2436 91° East 307 353 7,400 -1,740 Descending Boston Center
10:31PM 42.9319 -74.1303 91° East 301 346 5,600 -1,800 Descending Boston Center
10:32PM 42.9317 -74.0025 90° East 289 333 3,700 -1,440 Descending Boston Center
10:33PM 42.9183 -73.9058 101° East 262 302 2,600 -600 Descending Boston Center
10:34PM 42.8858 -73.8400 124° Southeast 198 228 2,500 -420 Descending Boston Center
10:35PM 42.8403 -73.8106 155° Southeast 166 191 1,800 -720 Descending Boston Center